sensor_id;sensor_type;location;lat;lon;timestamp;temperature;humidity
21801;DHT22;11062;51.164;16.924;2023-08-20T00:01:30;40.00;46.40
21801;DHT22;11062;51.164;16.924;2023-08-20T00:03:56;39.80;46.60
21801;DHT22;11062;51.164;16.924;2023-08-20T00:06:23;39.80;46.60
21801;DHT22;11062;51.164;16.924;2023-08-20T00:08:49;40.00;46.20
21801;DHT22;11062;51.164;16.924;2023-08-20T00:11:18;40.10;45.90
21801;DHT22;11062;51.164;16.924;2023-08-20T00:13:44;40.10;45.70
21801;DHT22;11062;51.164;16.924;2023-08-20T00:16:10;40.10;45.40
21801;DHT22;11062;51.164;16.924;2023-08-20T00:18:37;40.10;45.50
21801;DHT22;11062;51.164;16.924;2023-08-20T00:21:04;40.20;45.70
21801;DHT22;11062;51.164;16.924;2023-08-20T00:23:32;40.10;45.90
21801;DHT22;11062;51.164;16.924;2023-08-20T00:25:58;40.10;46.00
21801;DHT22;11062;51.164;16.924;2023-08-20T00:28:26;40.00;46.00
21801;DHT22;11062;51.164;16.924;2023-08-20T00:30:52;40.10;45.60
21801;DHT22;11062;51.164;16.924;2023-08-20T00:33:18;40.00;45.70
21801;DHT22;11062;51.164;16.924;2023-08-20T00:35:47;40.00;45.50
21801;DHT22;11062;51.164;16.924;2023-08-20T00:38:13;40.10;45.70
21801;DHT22;11062;51.164;16.924;2023-08-20T00:40:41;40.00;45.60
21801;DHT22;11062;51.164;16.924;2023-08-20T00:43:07;40.10;45.70
21801;DHT22;11062;51.164;16.924;2023-08-20T00:45:36;39.80;46.10
21801;DHT22;11062;51.164;16.924;2023-08-20T00:48:04;39.70;46.20
21801;DHT22;11062;51.164;16.924;2023-08-20T00:50:30;39.80;46.20
21801;DHT22;11062;51.164;16.924;2023-08-20T00:52:59;39.80;46.30
21801;DHT22;11062;51.164;16.924;2023-08-20T00:55:25;39.50;46.50
21801;DHT22;11062;51.164;16.924;2023-08-20T00:57:51;39.60;46.70
21801;DHT22;11062;51.164;16.924;2023-08-20T01:00:17;39.60;46.00
21801;DHT22;11062;51.164;16.924;2023-08-20T01:02:43;39.70;45.70
21801;DHT22;11062;51.164;16.924;2023-08-20T01:05:11;39.70;45.70
21801;DHT22;11062;51.164;16.924;2023-08-20T01:13:01;39.80;45.80
21801;DHT22;11062;51.164;16.924;2023-08-20T01:15:27;39.70;45.60
21801;DHT22;11062;51.164;16.924;2023-08-20T01:17:53;39.70;45.50
21801;DHT22;11062;51.164;16.924;2023-08-20T01:20:20;39.70;45.50
21801;DHT22;11062;51.164;16.924;2023-08-20T01:25:55;39.80;45.60
21801;DHT22;11062;51.164;16.924;2023-08-20T01:28:29;39.80;45.50
21801;DHT22;11062;51.164;16.924;2023-08-20T01:31:00;39.70;45.60
21801;DHT22;11062;51.164;16.924;2023-08-20T01:33:27;39.60;45.80
21801;DHT22;11062;51.164;16.924;2023-08-20T01:35:58;39.50;45.90
21801;DHT22;11062;51.164;16.924;2023-08-20T01:38:24;39.50;46.10
21801;DHT22;11062;51.164;16.924;2023-08-20T01:40:50;39.50;46.30
21801;DHT22;11062;51.164;16.924;2023-08-20T01:43:19;39.70;46.10
21801;DHT22;11062;51.164;16.924;2023-08-20T01:46:09;40.00;46.10
21801;DHT22;11062;51.164;16.924;2023-08-20T01:48:38;40.20;46.20
21801;DHT22;11062;51.164;16.924;2023-08-20T01:51:04;40.20;46.10
21801;DHT22;11062;51.164;16.924;2023-08-20T01:53:34;40.30;45.80
21801;DHT22;11062;51.164;16.924;2023-08-20T01:56:00;40.30;45.80
21801;DHT22;11062;51.164;16.924;2023-08-20T01:58:26;40.40;45.50
21801;DHT22;11062;51.164;16.924;2023-08-20T02:00:56;40.40;45.70
21801;DHT22;11062;51.164;16.924;2023-08-20T02:03:22;40.40;45.40
21801;DHT22;11062;51.164;16.924;2023-08-20T02:05:51;40.30;45.40
21801;DHT22;11062;51.164;16.924;2023-08-20T02:08:20;40.40;45.60
21801;DHT22;11062;51.164;16.924;2023-08-20T02:10:59;40.30;45.60
21801;DHT22;11062;51.164;16.924;2023-08-20T02:13:27;40.30;45.40
21801;DHT22;11062;51.164;16.924;2023-08-20T02:16:08;40.20;45.40
21801;DHT22;11062;51.164;16.924;2023-08-20T02:18:34;40.30;45.50
21801;DHT22;11062;51.164;16.924;2023-08-20T02:21:00;40.20;45.40
21801;DHT22;11062;51.164;16.924;2023-08-20T02:23:26;40.20;45.30
21801;DHT22;11062;51.164;16.924;2023-08-20T02:25:56;40.10;45.10
21801;DHT22;11062;51.164;16.924;2023-08-20T02:28:26;40.10;45.20
21801;DHT22;11062;51.164;16.924;2023-08-20T02:30:57;39.90;45.40
21801;DHT22;11062;51.164;16.924;2023-08-20T02:33:30;39.70;45.50
21801;DHT22;11062;51.164;16.924;2023-08-20T02:39:24;39.80;45.50
21801;DHT22;11062;51.164;16.924;2023-08-20T02:48:45;39.80;45.20
21801;DHT22;11062;51.164;16.924;2023-08-20T02:58:22;39.80;45.40
21801;DHT22;11062;51.164;16.924;2023-08-20T03:01:47;39.70;45.20
21801;DHT22;11062;51.164;16.924;2023-08-20T03:32:10;39.60;44.70
21801;DHT22;11062;51.164;16.924;2023-08-20T03:42:15;39.60;44.90
21801;DHT22;11062;51.164;16.924;2023-08-20T03:48:49;39.60;45.20
21801;DHT22;11062;51.164;16.924;2023-08-20T03:51:21;39.50;45.10
21801;DHT22;11062;51.164;16.924;2023-08-20T03:53:47;39.50;45.30
21801;DHT22;11062;51.164;16.924;2023-08-20T03:56:13;39.40;45.30
21801;DHT22;11062;51.164;16.924;2023-08-20T03:58:39;39.50;45.40
21801;DHT22;11062;51.164;16.924;2023-08-20T04:01:05;39.40;45.30
21801;DHT22;11062;51.164;16.924;2023-08-20T04:03:33;39.40;45.20
21801;DHT22;11062;51.164;16.924;2023-08-20T04:05:59;39.40;45.30
21801;DHT22;11062;51.164;16.924;2023-08-20T04:08:29;39.40;45.20
21801;DHT22;11062;51.164;16.924;2023-08-20T04:10:57;39.40;45.20
21801;DHT22;11062;51.164;16.924;2023-08-20T04:13:27;39.40;45.20
21801;DHT22;11062;51.164;16.924;2023-08-20T04:15:56;39.30;45.30
21801;DHT22;11062;51.164;16.924;2023-08-20T04:18:24;39.30;45.10
21801;DHT22;11062;51.164;16.924;2023-08-20T04:20:56;39.40;45.20
21801;DHT22;11062;51.164;16.924;2023-08-20T04:23:23;39.40;45.30
21801;DHT22;11062;51.164;16.924;2023-08-20T04:25:52;39.30;45.90
21801;DHT22;11062;51.164;16.924;2023-08-20T04:28:18;39.40;45.90
21801;DHT22;11062;51.164;16.924;2023-08-20T04:30:44;39.40;45.80
21801;DHT22;11062;51.164;16.924;2023-08-20T04:33:12;39.40;45.80
21801;DHT22;11062;51.164;16.924;2023-08-20T04:35:38;39.40;46.50
21801;DHT22;11062;51.164;16.924;2023-08-20T04:38:09;39.40;45.90
21801;DHT22;11062;51.164;16.924;2023-08-20T04:40:35;39.40;45.90
21801;DHT22;11062;51.164;16.924;2023-08-20T04:43:07;39.50;45.90
21801;DHT22;11062;51.164;16.924;2023-08-20T04:45:33;39.50;45.90
21801;DHT22;11062;51.164;16.924;2023-08-20T04:47:59;39.50;46.00
21801;DHT22;11062;51.164;16.924;2023-08-20T04:50:25;39.50;46.10
21801;DHT22;11062;51.164;16.924;2023-08-20T04:52:51;39.50;46.00
21801;DHT22;11062;51.164;16.924;2023-08-20T04:55:17;39.60;46.80
21801;DHT22;11062;51.164;16.924;2023-08-20T04:57:43;39.60;46.30
21801;DHT22;11062;51.164;16.924;2023-08-20T05:00:09;39.60;46.50
21801;DHT22;11062;51.164;16.924;2023-08-20T05:02:35;39.70;46.80
21801;DHT22;11062;51.164;16.924;2023-08-20T05:05:02;39.70;46.80
21801;DHT22;11062;51.164;16.924;2023-08-20T05:07:31;39.80;47.10
21801;DHT22;11062;51.164;16.924;2023-08-20T05:10:03;39.80;47.10
21801;DHT22;11062;51.164;16.924;2023-08-20T05:12:29;39.90;47.20
21801;DHT22;11062;51.164;16.924;2023-08-20T05:14:55;39.90;47.10
21801;DHT22;11062;51.164;16.924;2023-08-20T05:17:22;40.00;47.20
21801;DHT22;11062;51.164;16.924;2023-08-20T05:19:48;40.00;47.40
21801;DHT22;11062;51.164;16.924;2023-08-20T05:22:14;40.10;47.40
21801;DHT22;11062;51.164;16.924;2023-08-20T05:24:42;40.10;48.00
21801;DHT22;11062;51.164;16.924;2023-08-20T05:27:11;40.20;47.60
21801;DHT22;11062;51.164;16.924;2023-08-20T05:29:40;40.20;47.70
21801;DHT22;11062;51.164;16.924;2023-08-20T05:32:06;40.30;47.70
21801;DHT22;11062;51.164;16.924;2023-08-20T05:34:32;40.30;47.60
21801;DHT22;11062;51.164;16.924;2023-08-20T05:36:59;40.40;47.70
21801;DHT22;11062;51.164;16.924;2023-08-20T05:39:30;40.40;47.60
21801;DHT22;11062;51.164;16.924;2023-08-20T05:41:58;40.50;47.40
21801;DHT22;11062;51.164;16.924;2023-08-20T05:44:27;40.50;47.50
21801;DHT22;11062;51.164;16.924;2023-08-20T05:46:53;40.50;47.30
21801;DHT22;11062;51.164;16.924;2023-08-20T05:49:22;40.40;47.70
21801;DHT22;11062;51.164;16.924;2023-08-20T05:51:50;40.30;47.80
21801;DHT22;11062;51.164;16.924;2023-08-20T05:54:19;40.20;47.80
21801;DHT22;11062;51.164;16.924;2023-08-20T05:56:44;40.10;48.10
21801;DHT22;11062;51.164;16.924;2023-08-20T05:59:10;40.00;48.10
21801;DHT22;11062;51.164;16.924;2023-08-20T06:01:36;40.10;48.50
21801;DHT22;11062;51.164;16.924;2023-08-20T06:04:02;40.20;48.50
21801;DHT22;11062;51.164;16.924;2023-08-20T06:06:31;40.10;48.00
21801;DHT22;11062;51.164;16.924;2023-08-20T06:08:59;40.20;48.10
21801;DHT22;11062;51.164;16.924;2023-08-20T06:23:21;40.30;48.00
21801;DHT22;11062;51.164;16.924;2023-08-20T06:25:57;40.10;47.70
21801;DHT22;11062;51.164;16.924;2023-08-20T06:28:26;40.20;47.60
21801;DHT22;11062;51.164;16.924;2023-08-20T06:31:09;40.30;47.90
21801;DHT22;11062;51.164;16.924;2023-08-20T06:33:36;40.40;47.70
21801;DHT22;11062;51.164;16.924;2023-08-20T06:36:08;40.40;47.50
21801;DHT22;11062;51.164;16.924;2023-08-20T06:38:35;40.50;47.30
21801;DHT22;11062;51.164;16.924;2023-08-20T06:41:05;40.40;47.30
21801;DHT22;11062;51.164;16.924;2023-08-20T06:43:36;40.60;47.20
21801;DHT22;11062;51.164;16.924;2023-08-20T06:46:06;40.70;47.30
21801;DHT22;11062;51.164;16.924;2023-08-20T06:48:33;40.70;47.40
21801;DHT22;11062;51.164;16.924;2023-08-20T06:51:21;40.80;47.20
21801;DHT22;11062;51.164;16.924;2023-08-20T06:53:52;41.10;47.20
21801;DHT22;11062;51.164;16.924;2023-08-20T06:56:25;40.80;46.90
21801;DHT22;11062;51.164;16.924;2023-08-20T06:59:18;40.80;46.40
21801;DHT22;11062;51.164;16.924;2023-08-20T07:02:11;41.00;47.40
21801;DHT22;11062;51.164;16.924;2023-08-20T07:04:43;41.20;47.50
21801;DHT22;11062;51.164;16.924;2023-08-20T07:07:14;41.20;47.00
21801;DHT22;11062;51.164;16.924;2023-08-20T07:10:00;41.30;47.00
21801;DHT22;11062;51.164;16.924;2023-08-20T07:12:38;41.50;46.70
21801;DHT22;11062;51.164;16.924;2023-08-20T07:15:07;41.60;47.10
21801;DHT22;11062;51.164;16.924;2023-08-20T07:17:33;41.70;46.90
21801;DHT22;11062;51.164;16.924;2023-08-20T07:19:59;41.80;46.50
21801;DHT22;11062;51.164;16.924;2023-08-20T07:22:24;41.80;46.40
21801;DHT22;11062;51.164;16.924;2023-08-20T07:24:50;41.80;46.30
21801;DHT22;11062;51.164;16.924;2023-08-20T07:27:25;41.90;46.00
21801;DHT22;11062;51.164;16.924;2023-08-20T07:29:54;42.00;47.10
21801;DHT22;11062;51.164;16.924;2023-08-20T07:32:20;42.00;46.20
21801;DHT22;11062;51.164;16.924;2023-08-20T07:34:46;40.20;44.70
21801;DHT22;11062;51.164;16.924;2023-08-20T07:37:12;41.50;45.30
21801;DHT22;11062;51.164;16.924;2023-08-20T07:39:38;42.10;45.40
21801;DHT22;11062;51.164;16.924;2023-08-20T07:42:04;41.10;44.70
21801;DHT22;11062;51.164;16.924;2023-08-20T07:44:30;41.80;45.20
21801;DHT22;11062;51.164;16.924;2023-08-20T07:46:59;42.20;45.90
21801;DHT22;11062;51.164;16.924;2023-08-20T07:49:25;42.30;46.10
21801;DHT22;11062;51.164;16.924;2023-08-20T07:51:54;42.40;45.40
21801;DHT22;11062;51.164;16.924;2023-08-20T07:54:23;42.50;45.20
21801;DHT22;11062;51.164;16.924;2023-08-20T07:56:48;42.50;45.00
21801;DHT22;11062;51.164;16.924;2023-08-20T07:59:17;42.30;44.70
21801;DHT22;11062;51.164;16.924;2023-08-20T08:01:46;42.70;45.60
21801;DHT22;11062;51.164;16.924;2023-08-20T08:04:12;42.60;44.90
21801;DHT22;11062;51.164;16.924;2023-08-20T08:06:37;42.70;44.30
21801;DHT22;11062;51.164;16.924;2023-08-20T08:09:27;42.90;44.80
21801;DHT22;11062;51.164;16.924;2023-08-20T08:11:53;42.80;44.60
21801;DHT22;11062;51.164;16.924;2023-08-20T08:14:19;42.90;45.00
21801;DHT22;11062;51.164;16.924;2023-08-20T08:16:48;42.90;44.90
21801;DHT22;11062;51.164;16.924;2023-08-20T08:19:14;42.90;43.60
21801;DHT22;11062;51.164;16.924;2023-08-20T08:21:41;43.10;43.60
21801;DHT22;11062;51.164;16.924;2023-08-20T08:24:08;43.30;43.00
21801;DHT22;11062;51.164;16.924;2023-08-20T08:26:35;43.60;41.60
21801;DHT22;11062;51.164;16.924;2023-08-20T08:29:06;43.70;42.60
21801;DHT22;11062;51.164;16.924;2023-08-20T08:31:33;43.80;42.60
21801;DHT22;11062;51.164;16.924;2023-08-20T08:34:03;43.60;42.00
21801;DHT22;11062;51.164;16.924;2023-08-20T08:36:29;43.70;42.70
21801;DHT22;11062;51.164;16.924;2023-08-20T08:38:58;43.80;42.20
21801;DHT22;11062;51.164;16.924;2023-08-20T08:41:28;43.80;42.50
21801;DHT22;11062;51.164;16.924;2023-08-20T08:43:59;43.90;42.70
21801;DHT22;11062;51.164;16.924;2023-08-20T08:46:28;44.00;42.50
21801;DHT22;11062;51.164;16.924;2023-08-20T08:48:58;44.00;42.10
21801;DHT22;11062;51.164;16.924;2023-08-20T08:51:28;44.00;41.80
21801;DHT22;11062;51.164;16.924;2023-08-20T08:53:56;43.90;41.80
21801;DHT22;11062;51.164;16.924;2023-08-20T08:56:22;43.80;41.20
21801;DHT22;11062;51.164;16.924;2023-08-20T08:58:48;43.90;41.10
21801;DHT22;11062;51.164;16.924;2023-08-20T09:01:16;43.80;41.10
21801;DHT22;11062;51.164;16.924;2023-08-20T09:03:43;43.70;41.10
21801;DHT22;11062;51.164;16.924;2023-08-20T09:06:09;43.70;40.90
21801;DHT22;11062;51.164;16.924;2023-08-20T09:08:38;43.60;40.80
21801;DHT22;11062;51.164;16.924;2023-08-20T09:11:13;43.20;40.40
21801;DHT22;11062;51.164;16.924;2023-08-20T09:13:43;43.50;41.00
21801;DHT22;11062;51.164;16.924;2023-08-20T09:16:11;43.30;40.70
21801;DHT22;11062;51.164;16.924;2023-08-20T09:18:41;43.30;40.30
21801;DHT22;11062;51.164;16.924;2023-08-20T09:21:13;43.30;40.30
21801;DHT22;11062;51.164;16.924;2023-08-20T09:23:39;43.10;40.60
21801;DHT22;11062;51.164;16.924;2023-08-20T09:26:06;43.30;41.00
21801;DHT22;11062;51.164;16.924;2023-08-20T09:28:45;42.70;40.90
21801;DHT22;11062;51.164;16.924;2023-08-20T09:31:17;43.40;41.50
21801;DHT22;11062;51.164;16.924;2023-08-20T09:33:54;42.60;40.90
21801;DHT22;11062;51.164;16.924;2023-08-20T09:36:30;42.00;40.40
21801;DHT22;11062;51.164;16.924;2023-08-20T09:38:56;42.80;41.70
21801;DHT22;11062;51.164;16.924;2023-08-20T09:41:25;42.00;42.00
21801;DHT22;11062;51.164;16.924;2023-08-20T09:43:57;43.20;42.40
21801;DHT22;11062;51.164;16.924;2023-08-20T09:46:27;43.10;41.50
21801;DHT22;11062;51.164;16.924;2023-08-20T09:48:56;43.20;41.80
21801;DHT22;11062;51.164;16.924;2023-08-20T09:51:33;43.20;41.60
21801;DHT22;11062;51.164;16.924;2023-08-20T09:54:31;43.40;41.90
21801;DHT22;11062;51.164;16.924;2023-08-20T09:57:01;43.20;40.50
21801;DHT22;11062;51.164;16.924;2023-08-20T09:59:29;43.60;40.60
21801;DHT22;11062;51.164;16.924;2023-08-20T10:01:56;44.10;40.90
21801;DHT22;11062;51.164;16.924;2023-08-20T10:04:26;44.50;39.50
21801;DHT22;11062;51.164;16.924;2023-08-20T10:06:55;44.90;39.60
21801;DHT22;11062;51.164;16.924;2023-08-20T10:09:24;45.30;39.80
21801;DHT22;11062;51.164;16.924;2023-08-20T10:11:51;45.40;39.00
21801;DHT22;11062;51.164;16.924;2023-08-20T10:14:16;45.60;38.80
21801;DHT22;11062;51.164;16.924;2023-08-20T10:16:43;45.80;38.90
21801;DHT22;11062;51.164;16.924;2023-08-20T10:19:09;46.20;39.00
21801;DHT22;11062;51.164;16.924;2023-08-20T10:21:35;46.60;39.80
21801;DHT22;11062;51.164;16.924;2023-08-20T10:24:05;46.80;37.50
21801;DHT22;11062;51.164;16.924;2023-08-20T10:26:33;47.30;37.60
21801;DHT22;11062;51.164;16.924;2023-08-20T10:29:35;47.40;37.70
21801;DHT22;11062;51.164;16.924;2023-08-20T10:32:05;47.60;37.50
21801;DHT22;11062;51.164;16.924;2023-08-20T10:34:35;47.80;36.70
21801;DHT22;11062;51.164;16.924;2023-08-20T10:37:09;48.00;36.50
21801;DHT22;11062;51.164;16.924;2023-08-20T10:39:35;48.20;36.10
21801;DHT22;11062;51.164;16.924;2023-08-20T10:45:00;48.40;35.60
21801;DHT22;11062;51.164;16.924;2023-08-20T10:50:08;48.60;35.50
21801;DHT22;11062;51.164;16.924;2023-08-20T10:52:41;48.50;35.70
21801;DHT22;11062;51.164;16.924;2023-08-20T10:55:07;48.70;34.60
21801;DHT22;11062;51.164;16.924;2023-08-20T10:57:39;48.80;34.20
21801;DHT22;11062;51.164;16.924;2023-08-20T11:00:05;48.80;35.00
21801;DHT22;11062;51.164;16.924;2023-08-20T11:02:40;48.90;34.20
21801;DHT22;11062;51.164;16.924;2023-08-20T11:05:20;48.90;33.90
21801;DHT22;11062;51.164;16.924;2023-08-20T11:07:47;49.20;35.60
21801;DHT22;11062;51.164;16.924;2023-08-20T11:10:17;49.30;35.30
21801;DHT22;11062;51.164;16.924;2023-08-20T11:12:45;49.50;34.50
21801;DHT22;11062;51.164;16.924;2023-08-20T11:15:11;49.60;34.70
21801;DHT22;11062;51.164;16.924;2023-08-20T11:17:44;49.70;34.60
21801;DHT22;11062;51.164;16.924;2023-08-20T11:20:13;49.80;34.70
21801;DHT22;11062;51.164;16.924;2023-08-20T11:22:40;50.00;34.40
21801;DHT22;11062;51.164;16.924;2023-08-20T11:25:12;50.20;34.50
21801;DHT22;11062;51.164;16.924;2023-08-20T11:27:42;50.40;33.40
21801;DHT22;11062;51.164;16.924;2023-08-20T11:30:09;50.60;34.20
21801;DHT22;11062;51.164;16.924;2023-08-20T11:32:44;50.60;33.40
21801;DHT22;11062;51.164;16.924;2023-08-20T11:35:12;50.90;33.50
21801;DHT22;11062;51.164;16.924;2023-08-20T11:37:38;51.10;33.70
21801;DHT22;11062;51.164;16.924;2023-08-20T11:40:08;51.40;33.00
21801;DHT22;11062;51.164;16.924;2023-08-20T11:42:33;51.40;32.90
21801;DHT22;11062;51.164;16.924;2023-08-20T11:44:59;51.70;32.70
21801;DHT22;11062;51.164;16.924;2023-08-20T11:47:25;52.10;32.50
21801;DHT22;11062;51.164;16.924;2023-08-20T11:50:07;52.30;32.70
21801;DHT22;11062;51.164;16.924;2023-08-20T11:52:34;52.50;32.50
21801;DHT22;11062;51.164;16.924;2023-08-20T11:55:05;52.80;32.60
21801;DHT22;11062;51.164;16.924;2023-08-20T11:57:31;52.90;31.20
21801;DHT22;11062;51.164;16.924;2023-08-20T12:00:23;53.00;31.40
21801;DHT22;11062;51.164;16.924;2023-08-20T12:02:57;53.30;31.20
21801;DHT22;11062;51.164;16.924;2023-08-20T12:05:27;53.60;30.40
21801;DHT22;11062;51.164;16.924;2023-08-20T12:08:04;53.80;29.80
21801;DHT22;11062;51.164;16.924;2023-08-20T12:10:31;54.10;30.00
21801;DHT22;11062;51.164;16.924;2023-08-20T12:12:58;54.10;30.00
21801;DHT22;11062;51.164;16.924;2023-08-20T12:15:25;54.30;29.70
21801;DHT22;11062;51.164;16.924;2023-08-20T12:18:02;54.60;30.60
21801;DHT22;11062;51.164;16.924;2023-08-20T12:20:33;54.80;30.40
21801;DHT22;11062;51.164;16.924;2023-08-20T12:23:01;55.00;30.20
21801;DHT22;11062;51.164;16.924;2023-08-20T12:25:30;55.30;30.00
21801;DHT22;11062;51.164;16.924;2023-08-20T12:27:56;55.10;29.40
21801;DHT22;11062;51.164;16.924;2023-08-20T12:30:22;55.10;29.30
21801;DHT22;11062;51.164;16.924;2023-08-20T12:32:48;55.40;29.70
21801;DHT22;11062;51.164;16.924;2023-08-20T12:35:14;55.60;29.30
21801;DHT22;11062;51.164;16.924;2023-08-20T12:37:39;55.60;29.20
21801;DHT22;11062;51.164;16.924;2023-08-20T12:40:06;55.80;29.60
21801;DHT22;11062;51.164;16.924;2023-08-20T12:42:37;55.70;28.40
21801;DHT22;11062;51.164;16.924;2023-08-20T12:45:06;55.70;29.00
21801;DHT22;11062;51.164;16.924;2023-08-20T12:47:33;55.70;29.20
21801;DHT22;11062;51.164;16.924;2023-08-20T12:49:59;55.80;28.50
21801;DHT22;11062;51.164;16.924;2023-08-20T12:52:28;56.00;29.00
21801;DHT22;11062;51.164;16.924;2023-08-20T12:54:54;56.10;28.20
21801;DHT22;11062;51.164;16.924;2023-08-20T12:57:19;56.30;28.20
21801;DHT22;11062;51.164;16.924;2023-08-20T12:59:45;56.40;29.10
21801;DHT22;11062;51.164;16.924;2023-08-20T13:02:11;56.50;29.00
21801;DHT22;11062;51.164;16.924;2023-08-20T13:04:40;56.60;28.70
21801;DHT22;11062;51.164;16.924;2023-08-20T13:07:07;56.70;28.20
21801;DHT22;11062;51.164;16.924;2023-08-20T13:09:33;56.70;28.50
21801;DHT22;11062;51.164;16.924;2023-08-20T13:12:01;56.80;27.90
21801;DHT22;11062;51.164;16.924;2023-08-20T13:14:29;56.70;27.70
21801;DHT22;11062;51.164;16.924;2023-08-20T13:16:56;56.70;27.90
21801;DHT22;11062;51.164;16.924;2023-08-20T13:19:22;56.70;27.90
21801;DHT22;11062;51.164;16.924;2023-08-20T13:21:48;56.60;27.80
21801;DHT22;11062;51.164;16.924;2023-08-20T13:24:13;56.40;27.90
21801;DHT22;11062;51.164;16.924;2023-08-20T13:26:39;56.30;28.10
21801;DHT22;11062;51.164;16.924;2023-08-20T13:29:05;56.10;27.70
21801;DHT22;11062;51.164;16.924;2023-08-20T13:31:31;56.00;28.00
21801;DHT22;11062;51.164;16.924;2023-08-20T13:33:57;56.00;27.90
21801;DHT22;11062;51.164;16.924;2023-08-20T13:36:22;55.70;27.30
21801;DHT22;11062;51.164;16.924;2023-08-20T13:38:48;55.40;27.50
21801;DHT22;11062;51.164;16.924;2023-08-20T13:41:14;55.50;27.50
21801;DHT22;11062;51.164;16.924;2023-08-20T13:43:40;55.40;27.80
21801;DHT22;11062;51.164;16.924;2023-08-20T13:46:14;55.00;27.30
21801;DHT22;11062;51.164;16.924;2023-08-20T13:48:43;54.60;27.90
21801;DHT22;11062;51.164;16.924;2023-08-20T13:51:15;54.70;28.30
21801;DHT22;11062;51.164;16.924;2023-08-20T13:53:52;54.70;28.20
21801;DHT22;11062;51.164;16.924;2023-08-20T13:56:24;54.60;28.30
21801;DHT22;11062;51.164;16.924;2023-08-20T13:58:52;54.50;28.30
21801;DHT22;11062;51.164;16.924;2023-08-20T14:01:18;54.30;28.80
21801;DHT22;11062;51.164;16.924;2023-08-20T14:03:55;54.20;28.50
21801;DHT22;11062;51.164;16.924;2023-08-20T14:06:22;53.70;28.90
21801;DHT22;11062;51.164;16.924;2023-08-20T14:08:51;53.60;29.00
21801;DHT22;11062;51.164;16.924;2023-08-20T14:11:23;53.40;29.70
21801;DHT22;11062;51.164;16.924;2023-08-20T14:13:50;53.00;29.10
21801;DHT22;11062;51.164;16.924;2023-08-20T14:16:16;52.90;30.20
21801;DHT22;11062;51.164;16.924;2023-08-20T14:18:48;52.80;29.10
21801;DHT22;11062;51.164;16.924;2023-08-20T14:21:14;52.80;29.10
21801;DHT22;11062;51.164;16.924;2023-08-20T14:23:47;52.90;28.80
21801;DHT22;11062;51.164;16.924;2023-08-20T14:26:17;52.90;28.60
21801;DHT22;11062;51.164;16.924;2023-08-20T14:28:46;52.90;29.30
21801;DHT22;11062;51.164;16.924;2023-08-20T14:31:12;52.80;29.10
21801;DHT22;11062;51.164;16.924;2023-08-20T14:33:38;52.90;28.60
21801;DHT22;11062;51.164;16.924;2023-08-20T14:36:08;52.90;29.30
21801;DHT22;11062;51.164;16.924;2023-08-20T14:38:34;52.80;28.20
21801;DHT22;11062;51.164;16.924;2023-08-20T14:41:01;52.90;28.70
21801;DHT22;11062;51.164;16.924;2023-08-20T14:43:30;52.80;28.80
21801;DHT22;11062;51.164;16.924;2023-08-20T14:45:56;52.80;28.40
21801;DHT22;11062;51.164;16.924;2023-08-20T14:48:23;52.90;28.90
21801;DHT22;11062;51.164;16.924;2023-08-20T14:50:52;52.80;29.30
21801;DHT22;11062;51.164;16.924;2023-08-20T14:53:18;52.70;29.60
21801;DHT22;11062;51.164;16.924;2023-08-20T14:55:44;52.50;30.00
21801;DHT22;11062;51.164;16.924;2023-08-20T14:58:10;52.30;30.30
21801;DHT22;11062;51.164;16.924;2023-08-20T15:00:36;52.20;30.40
21801;DHT22;11062;51.164;16.924;2023-08-20T15:03:03;52.10;30.70
21801;DHT22;11062;51.164;16.924;2023-08-20T15:05:30;51.90;31.20
21801;DHT22;11062;51.164;16.924;2023-08-20T15:07:59;51.80;31.00
21801;DHT22;11062;51.164;16.924;2023-08-20T15:10:25;51.60;31.30
21801;DHT22;11062;51.164;16.924;2023-08-20T15:12:51;51.40;31.90
21801;DHT22;11062;51.164;16.924;2023-08-20T15:15:17;51.40;31.70
21801;DHT22;11062;51.164;16.924;2023-08-20T15:17:43;51.30;32.00
21801;DHT22;11062;51.164;16.924;2023-08-20T15:20:10;51.30;31.10
21801;DHT22;11062;51.164;16.924;2023-08-20T15:22:36;51.10;30.80
21801;DHT22;11062;51.164;16.924;2023-08-20T15:25:03;51.00;31.00
21801;DHT22;11062;51.164;16.924;2023-08-20T15:27:33;51.10;30.50
21801;DHT22;11062;51.164;16.924;2023-08-20T15:30:00;51.10;30.40
21801;DHT22;11062;51.164;16.924;2023-08-20T15:32:31;51.20;30.60
21801;DHT22;11062;51.164;16.924;2023-08-20T15:35:00;51.30;30.10
21801;DHT22;11062;51.164;16.924;2023-08-20T15:37:28;51.70;30.60
21801;DHT22;11062;51.164;16.924;2023-08-20T15:39:55;51.80;29.90
21801;DHT22;11062;51.164;16.924;2023-08-20T15:42:24;52.10;30.60
21801;DHT22;11062;51.164;16.924;2023-08-20T15:44:53;52.40;30.30
21801;DHT22;11062;51.164;16.924;2023-08-20T15:47:31;52.70;29.70
21801;DHT22;11062;51.164;16.924;2023-08-20T15:50:00;52.80;30.30
21801;DHT22;11062;51.164;16.924;2023-08-20T15:52:26;53.10;30.80
21801;DHT22;11062;51.164;16.924;2023-08-20T15:54:58;53.40;31.00
21801;DHT22;11062;51.164;16.924;2023-08-20T15:57:36;53.60;30.60
21801;DHT22;11062;51.164;16.924;2023-08-20T16:00:03;53.70;30.30
21801;DHT22;11062;51.164;16.924;2023-08-20T16:02:29;53.90;30.20
21801;DHT22;11062;51.164;16.924;2023-08-20T16:04:57;54.00;30.30
21801;DHT22;11062;51.164;16.924;2023-08-20T16:07:26;54.10;30.40
21801;DHT22;11062;51.164;16.924;2023-08-20T16:09:55;54.20;30.00
21801;DHT22;11062;51.164;16.924;2023-08-20T16:12:27;54.20;30.00
21801;DHT22;11062;51.164;16.924;2023-08-20T16:14:56;54.30;29.80
21801;DHT22;11062;51.164;16.924;2023-08-20T16:17:24;54.40;29.70
21801;DHT22;11062;51.164;16.924;2023-08-20T16:19:50;54.40;30.00
21801;DHT22;11062;51.164;16.924;2023-08-20T16:22:19;54.40;30.70
21801;DHT22;11062;51.164;16.924;2023-08-20T16:24:45;54.40;31.00
21801;DHT22;11062;51.164;16.924;2023-08-20T16:27:16;54.40;30.90
21801;DHT22;11062;51.164;16.924;2023-08-20T16:29:51;54.30;30.80
21801;DHT22;11062;51.164;16.924;2023-08-20T16:32:23;54.30;30.50
21801;DHT22;11062;51.164;16.924;2023-08-20T16:34:52;54.30;31.00
21801;DHT22;11062;51.164;16.924;2023-08-20T16:37:18;54.20;31.00
21801;DHT22;11062;51.164;16.924;2023-08-20T16:39:44;54.20;31.50
21801;DHT22;11062;51.164;16.924;2023-08-20T16:42:10;54.10;32.00
21801;DHT22;11062;51.164;16.924;2023-08-20T16:44:35;54.00;32.20
21801;DHT22;11062;51.164;16.924;2023-08-20T16:47:01;53.90;32.80
21801;DHT22;11062;51.164;16.924;2023-08-20T16:49:27;53.70;33.10